createdAt,value
2023-05-05T05:25:34.551Z,6.00
2023-05-05T05:28:10.211Z,5.90
2023-05-05T05:33:10.918Z,5.10
2023-05-05T05:35:38.835Z,4.70
2023-05-05T05:38:06.131Z,4.80
2023-05-05T05:40:33.275Z,5.10
2023-05-05T05:43:00.542Z,4.80
2023-05-05T05:45:27.802Z,4.40
2023-05-05T05:47:55.286Z,3.60
2023-05-05T05:50:22.921Z,3.50
2023-05-05T05:52:50.051Z,4.10
2023-05-05T05:55:17.303Z,3.80
2023-05-05T05:57:45.086Z,3.50
2023-05-05T06:00:13.664Z,3.90
2023-05-05T06:02:42.191Z,3.20
2023-05-05T06:05:13.313Z,2.80
2023-05-05T06:07:42.032Z,2.50
2023-05-05T06:10:25.760Z,2.30
2023-05-05T06:12:55.645Z,2.50
2023-05-05T06:15:23.370Z,1.70
2023-05-05T06:17:50.561Z,2.50
2023-05-05T06:20:17.771Z,3.00
2023-05-05T06:22:44.929Z,3.10
2023-05-05T06:25:12.324Z,3.30
2023-05-05T06:27:39.564Z,3.30
2023-05-05T06:30:07.925Z,3.00
2023-05-05T06:32:35.226Z,3.00
2023-05-05T06:35:02.639Z,3.90
2023-05-05T06:37:29.768Z,3.00
2023-05-05T06:39:57.016Z,2.50
2023-05-05T06:42:24.271Z,1.90
2023-05-05T06:44:52.274Z,2.30
2023-05-05T06:47:19.499Z,2.60
2023-05-05T06:49:46.952Z,2.50
2023-05-05T06:52:14.112Z,1.70
2023-05-05T06:54:41.176Z,1.90
2023-05-05T06:57:08.349Z,1.80
2023-05-05T06:59:35.329Z,1.80
2023-05-05T07:02:02.387Z,1.70
2023-05-05T07:04:29.872Z,2.20
2023-05-05T07:06:58.547Z,2.10
2023-05-05T07:09:25.863Z,1.70
2023-05-05T07:11:52.915Z,2.10
2023-05-05T07:14:21.521Z,1.30
2023-05-05T07:16:50.883Z,1.70
2023-05-05T07:19:18.194Z,2.00
2023-05-05T07:21:45.192Z,1.40
2023-05-05T07:24:12.281Z,1.70
2023-05-05T07:26:39.434Z,1.40
2023-05-05T07:29:07.317Z,2.00
2023-05-05T07:31:34.408Z,1.50
2023-05-05T07:34:01.649Z,1.40
2023-05-05T07:36:28.948Z,1.50
2023-05-05T07:38:56.027Z,1.70
2023-05-05T07:41:23.268Z,1.40
2023-05-05T07:43:50.600Z,1.80
2023-05-05T07:46:18.374Z,1.80
2023-05-05T07:48:46.365Z,1.60
2023-05-05T07:51:13.489Z,1.60
2023-05-05T07:53:41.278Z,1.70
2023-05-05T07:56:09.219Z,1.20
2023-05-05T07:58:36.625Z,1.70
2023-05-05T08:01:06.565Z,1.40
2023-05-05T08:03:34.021Z,1.90
2023-05-05T08:06:06.759Z,2.00
2023-05-05T08:08:33.989Z,2.00
2023-05-05T08:11:01.669Z,2.10
2023-05-05T08:13:30.331Z,1.40
2023-05-05T08:15:57.580Z,1.50
2023-05-05T08:18:24.888Z,1.70
2023-05-05T08:20:53.051Z,1.70
2023-05-05T08:23:20.176Z,1.50
2023-05-05T08:25:47.305Z,2.00
2023-05-05T08:28:14.354Z,2.00
2023-05-05T08:30:42.074Z,1.60
2023-05-05T08:33:09.198Z,1.60
2023-05-05T08:35:36.200Z,1.50
2023-05-05T08:38:03.379Z,1.40
2023-05-05T08:40:33.962Z,1.50
2023-05-05T08:45:31.903Z,1.30
2023-05-05T08:48:04.106Z,1.60
2023-05-05T08:50:31.603Z,1.60
2023-05-05T08:53:12.173Z,2.00
2023-05-05T08:58:09.232Z,1.50
2023-05-05T09:00:36.274Z,1.70
2023-05-05T09:03:03.580Z,1.80
2023-05-05T09:05:30.779Z,1.80
2023-05-05T09:07:57.833Z,1.80
2023-05-05T09:10:25.895Z,1.40
2023-05-05T09:12:53.547Z,1.50
2023-05-05T09:15:20.697Z,1.30
2023-05-05T09:17:47.827Z,1.40
2023-05-05T09:20:15.115Z,1.90
2023-05-05T09:22:44.117Z,2.00
2023-05-05T09:25:15.383Z,1.60
2023-05-05T09:27:47.046Z,1.90
2023-05-05T09:30:18.807Z,1.60
2023-05-05T09:32:50.485Z,2.00
2023-05-05T09:35:18.395Z,1.50
2023-05-05T09:37:45.832Z,1.90
2023-05-05T09:40:19.097Z,1.70
2023-05-05T09:42:46.506Z,1.70
2023-05-05T09:45:20.174Z,1.70
2023-05-05T09:47:47.905Z,1.30
2023-05-05T09:50:21.575Z,2.60
2023-05-05T09:52:59.745Z,2.10
2023-05-05T09:55:26.928Z,1.80
2023-05-05T09:57:54.092Z,1.90
2023-05-05T10:00:21.447Z,1.80
2023-05-05T10:02:48.541Z,1.80
2023-05-05T10:05:17.234Z,1.80
2023-05-05T10:07:45.749Z,2.00
2023-05-05T10:10:17.251Z,1.60
2023-05-05T10:12:46.402Z,1.70
2023-05-05T10:15:14.188Z,1.80
2023-05-05T10:18:02.807Z,2.00
2023-05-05T10:20:33.755Z,2.10
2023-05-05T10:23:00.903Z,2.00
2023-05-05T10:25:31.223Z,2.00
2023-05-05T10:27:59.915Z,1.80
2023-05-05T10:30:35.186Z,1.90
2023-05-05T10:35:53.147Z,1.60
2023-05-05T10:38:20.443Z,1.70
2023-05-05T10:40:48.747Z,2.00
2023-05-05T10:43:16.032Z,2.10
2023-05-05T10:45:43.340Z,1.50
2023-05-05T10:48:13.609Z,1.90
2023-05-05T10:50:47.835Z,1.70
2023-05-05T10:53:27.026Z,1.70
2023-05-05T10:56:03.696Z,1.60
2023-05-05T10:58:51.088Z,1.50
2023-05-05T11:01:30.399Z,1.70
2023-05-05T11:04:18.218Z,1.70
2023-05-05T11:07:13.714Z,1.80
2023-05-05T11:09:58.365Z,1.90
2023-05-05T11:12:25.617Z,1.70
2023-05-05T11:15:24.325Z,2.50
2023-05-05T11:17:51.519Z,1.90
2023-05-05T11:20:37.481Z,1.30
2023-05-05T11:23:05.159Z,1.60
2023-05-05T11:25:36.762Z,1.90
2023-05-05T11:28:08.829Z,1.90
2023-05-05T11:30:36.802Z,1.60
2023-05-05T11:33:39.683Z,1.90
2023-05-05T11:36:07.922Z,1.50
2023-05-05T11:39:00.553Z,2.70
2023-05-05T11:41:30.830Z,2.00
2023-05-05T11:44:13.947Z,1.80
2023-05-05T11:49:46.613Z,1.80
2023-05-05T11:52:14.567Z,1.90
2023-05-05T11:57:33.396Z,1.60
2023-05-05T12:00:08.435Z,1.80
2023-05-05T12:02:36.225Z,1.70
2023-05-05T12:05:03.554Z,1.60
2023-05-05T12:07:32.078Z,2.10
2023-05-05T12:09:59.432Z,1.40
2023-05-05T12:12:37.268Z,1.40
2023-05-05T12:15:05.471Z,2.00
2023-05-05T12:17:45.023Z,1.90
2023-05-05T12:20:12.905Z,1.90
2023-05-05T12:22:40.619Z,2.50
2023-05-05T12:25:08.240Z,1.40
2023-05-05T12:27:35.601Z,1.70
2023-05-05T12:30:16.757Z,1.80
2023-05-05T12:32:44.309Z,1.40
2023-05-05T12:35:11.663Z,1.60
2023-05-05T12:37:38.796Z,1.30
2023-05-05T12:40:07.410Z,1.20
2023-05-05T12:42:41.257Z,1.40
2023-05-05T12:45:17.517Z,1.60
2023-05-05T12:47:45.184Z,1.50
2023-05-05T12:50:12.476Z,1.30
2023-05-05T12:52:44.141Z,1.20
2023-05-05T12:55:11.647Z,1.20
2023-05-05T12:57:39.599Z,1.40
2023-05-05T13:00:16.862Z,1.20
2023-05-05T13:02:44.558Z,1.30
2023-05-05T13:05:12.375Z,1.30
2023-05-05T13:07:52.322Z,1.50
2023-05-05T13:10:19.482Z,1.70
2023-05-05T13:12:46.536Z,1.40
2023-05-05T13:15:13.995Z,1.70
2023-05-05T13:17:41.237Z,1.60
2023-05-05T13:20:10.874Z,1.50
2023-05-05T13:22:38.254Z,2.40
2023-05-05T13:25:05.908Z,2.50
2023-05-05T13:30:15.275Z,1.40
2023-05-05T13:32:42.498Z,1.30
2023-05-05T13:35:10.394Z,1.80
2023-05-05T13:37:37.997Z,1.40
2023-05-05T13:40:05.929Z,1.20
2023-05-05T13:42:33.033Z,1.20
2023-05-05T13:45:00.180Z,1.30
2023-05-05T13:47:27.323Z,1.20
2023-05-05T13:49:54.397Z,1.00
2023-05-05T13:52:21.500Z,1.30
2023-05-05T13:54:48.664Z,1.10
2023-05-05T13:57:15.693Z,1.60
2023-05-05T13:59:42.841Z,1.20
2023-05-05T14:02:09.952Z,1.40
2023-05-05T14:07:21.697Z,1.30
2023-05-05T14:09:48.752Z,1.30
2023-05-05T14:12:15.850Z,1.20
2023-05-05T14:14:43.052Z,1.00
2023-05-05T14:17:10.226Z,1.20
2023-05-05T14:19:37.255Z,1.40
2023-05-05T14:22:04.495Z,1.20
2023-05-05T14:24:31.571Z,0.90
2023-05-05T14:26:58.690Z,1.20
2023-05-05T14:29:25.740Z,1.30
2023-05-05T14:31:52.997Z,1.20
2023-05-05T14:34:20.341Z,1.00
2023-05-05T14:36:47.504Z,1.80
2023-05-05T14:39:14.560Z,1.10
2023-05-05T14:41:41.536Z,1.30
2023-05-05T14:44:08.637Z,1.10
2023-05-05T14:46:35.793Z,1.50
2023-05-05T14:49:02.859Z,1.30
2023-05-05T14:51:30.190Z,1.20
2023-05-05T14:53:57.348Z,1.50
2023-05-05T14:56:26.765Z,1.20
2023-05-05T14:58:54.306Z,1.20
2023-05-05T15:01:21.474Z,1.00
2023-05-05T15:03:48.549Z,1.20
2023-05-05T15:06:16.696Z,1.80
2023-05-05T15:08:43.731Z,1.30
2023-05-05T15:11:10.770Z,1.30
2023-05-05T15:13:41.777Z,1.20
2023-05-05T15:18:36.580Z,1.20
2023-05-05T15:21:04.798Z,1.20
2023-05-05T15:23:31.873Z,1.50
2023-05-05T15:25:59.007Z,1.70
2023-05-05T15:28:26.135Z,1.40
2023-05-05T15:30:53.399Z,1.60
2023-05-05T15:33:20.449Z,1.40
2023-05-05T15:35:47.595Z,2.20
2023-05-05T15:38:14.670Z,1.90
2023-05-05T15:40:41.698Z,1.80
2023-05-05T15:43:08.839Z,1.70
2023-05-05T15:45:36.399Z,1.70
2023-05-05T15:48:04.273Z,2.40
2023-05-05T15:50:32.127Z,1.50
2023-05-05T15:52:59.285Z,1.50
2023-05-05T15:55:26.653Z,1.50
2023-05-05T15:57:54.301Z,1.10
2023-05-05T16:00:21.835Z,1.50
2023-05-05T16:02:49.155Z,1.30
2023-05-05T16:05:16.363Z,1.30
2023-05-05T16:07:43.855Z,1.30
2023-05-05T16:10:10.989Z,1.00
2023-05-05T16:12:38.561Z,0.90
2023-05-05T16:15:06.737Z,1.10
2023-05-05T16:17:34.077Z,1.30
2023-05-05T16:20:01.463Z,1.20
2023-05-05T16:22:28.763Z,1.00
2023-05-05T16:24:55.837Z,1.00
2023-05-05T16:27:22.967Z,1.10
2023-05-05T16:29:50.236Z,1.20
2023-05-05T16:32:17.466Z,1.10
2023-05-05T16:34:44.728Z,1.30
2023-05-05T16:37:12.785Z,1.20
2023-05-05T16:39:40.477Z,1.30
2023-05-05T16:42:07.755Z,1.50
2023-05-05T16:44:34.838Z,2.00
2023-05-05T16:47:01.958Z,1.70
2023-05-05T16:49:29.156Z,2.10
2023-05-05T16:51:57.391Z,1.80
2023-05-05T16:54:24.581Z,1.70
2023-05-05T16:56:52.615Z,1.60
2023-05-05T16:59:19.807Z,1.70
2023-05-05T17:01:47.177Z,1.70
2023-05-05T17:04:14.421Z,1.70
2023-05-05T17:06:41.457Z,1.50
2023-05-05T17:09:08.712Z,1.30
2023-05-05T17:11:36.375Z,1.40
2023-05-05T17:14:03.883Z,1.30
2023-05-05T17:16:31.365Z,1.50
2023-05-05T17:18:58.612Z,1.90
2023-05-05T17:21:25.695Z,1.00
2023-05-05T17:23:52.733Z,1.80
2023-05-05T17:26:19.984Z,1.20
2023-05-05T17:28:47.210Z,1.10
2023-05-05T17:31:14.428Z,1.40
2023-05-05T17:33:41.584Z,1.30
2023-05-05T17:36:09.175Z,1.10
2023-05-05T17:38:36.565Z,1.30
2023-05-05T17:41:03.718Z,2.10
2023-05-05T17:43:30.854Z,1.70
2023-05-05T17:45:57.924Z,2.00
2023-05-05T17:48:26.442Z,1.90
2023-05-05T17:50:53.938Z,1.70
2023-05-05T17:53:21.755Z,2.30
2023-05-05T17:55:48.885Z,2.50
2023-05-05T17:58:16.059Z,2.70
2023-05-05T18:00:43.160Z,2.50
2023-05-05T18:03:10.382Z,2.40
2023-05-05T18:05:37.563Z,2.20
2023-05-05T18:08:04.750Z,2.00
2023-05-05T18:10:32.607Z,1.60
2023-05-05T18:12:59.667Z,1.60
2023-05-05T18:15:26.782Z,1.60
2023-05-05T18:17:54.359Z,1.30
2023-05-05T18:20:21.551Z,1.30
2023-05-05T18:22:48.706Z,1.60
2023-05-05T18:25:15.900Z,1.40
2023-05-05T18:27:44.088Z,1.20
2023-05-05T18:30:11.832Z,0.90
2023-05-05T18:32:39.212Z,1.10
2023-05-05T18:35:07.391Z,1.40
2023-05-05T18:37:34.724Z,1.20
2023-05-05T18:40:01.800Z,1.60
2023-05-05T18:42:28.835Z,1.80
2023-05-05T18:44:55.772Z,1.50
2023-05-05T18:47:23.928Z,1.30
2023-05-05T18:49:51.486Z,2.50
2023-05-05T18:52:18.535Z,2.70
2023-05-05T18:54:45.678Z,2.00
2023-05-05T18:57:12.867Z,2.20
2023-05-05T18:59:40.108Z,2.50
2023-05-05T19:02:08.184Z,2.60
2023-05-05T19:04:38.103Z,1.80
2023-05-05T19:07:05.957Z,2.40
2023-05-05T19:09:33.200Z,2.30
2023-05-05T19:12:00.270Z,2.10
2023-05-05T19:14:27.609Z,2.20
2023-05-05T19:16:56.127Z,1.90
2023-05-05T19:19:23.531Z,2.30
2023-05-05T19:21:50.802Z,2.10
2023-05-05T19:24:17.958Z,1.90
2023-05-05T19:26:45.087Z,2.30
2023-05-05T19:29:12.844Z,2.00
2023-05-05T19:31:40.033Z,2.10
2023-05-05T19:34:07.293Z,1.80
2023-05-05T19:36:34.742Z,2.10
2023-05-05T19:39:02.877Z,1.90
2023-05-05T19:41:31.182Z,2.00
2023-05-05T19:43:58.405Z,2.00
2023-05-05T19:46:28.474Z,2.30
2023-05-05T19:48:55.926Z,2.20
2023-05-05T19:51:23.165Z,2.00
2023-05-05T19:53:51.003Z,2.30
2023-05-05T19:56:18.148Z,2.40
2023-05-05T19:58:56.155Z,1.90
2023-05-05T20:01:23.581Z,1.90
2023-05-05T20:03:51.288Z,1.80
2023-05-05T20:06:18.525Z,1.90
2023-05-05T20:08:45.539Z,2.60
2023-05-05T20:11:17.008Z,2.00
2023-05-05T20:16:11.937Z,1.50
2023-05-05T20:18:39.822Z,1.50
2023-05-05T20:21:07.310Z,2.10
2023-05-05T20:23:34.623Z,1.70
2023-05-05T20:26:01.912Z,1.40
2023-05-05T20:28:30.076Z,1.90
2023-05-05T20:30:57.280Z,1.60
2023-05-05T20:33:24.554Z,2.00
2023-05-05T20:35:51.728Z,1.60
2023-05-05T20:38:18.954Z,1.30
2023-05-05T20:40:46.322Z,1.30
2023-05-05T20:43:13.483Z,1.70
2023-05-05T20:45:40.687Z,1.40
2023-05-05T20:48:10.081Z,1.50
2023-05-05T20:50:38.757Z,1.30
2023-05-05T20:53:07.900Z,1.70
2023-05-05T20:55:35.483Z,1.80
2023-05-05T20:58:03.509Z,1.70
2023-05-05T21:00:30.577Z,1.70
2023-05-05T21:02:57.566Z,1.50
2023-05-05T21:05:24.699Z,1.70
2023-05-05T21:07:53.349Z,1.30
2023-05-05T21:10:20.561Z,1.20
2023-05-05T21:12:47.650Z,1.40
2023-05-05T21:15:16.744Z,1.40
2023-05-05T21:17:43.947Z,1.70
2023-05-05T21:20:11.657Z,1.30
2023-05-05T21:22:39.026Z,1.40
2023-05-05T21:25:15.928Z,1.40
2023-05-05T21:27:43.083Z,1.60
2023-05-05T21:30:11.426Z,1.70
2023-05-05T21:32:39.389Z,1.80
2023-05-05T21:35:07.206Z,1.80
2023-05-05T21:37:34.227Z,1.70
2023-05-05T21:40:01.280Z,1.40
2023-05-05T21:42:30.164Z,1.60
2023-05-05T21:44:57.089Z,1.50
2023-05-05T21:47:24.138Z,1.50
2023-05-05T21:49:51.133Z,1.30
2023-05-05T21:52:18.130Z,1.10
2023-05-05T21:54:45.519Z,1.20
2023-05-05T21:57:12.467Z,1.30
2023-05-05T21:59:39.428Z,1.40
2023-05-05T22:02:06.443Z,1.30
2023-05-05T22:04:33.433Z,1.30
2023-05-05T22:07:00.437Z,1.20
2023-05-05T22:09:27.436Z,1.10
2023-05-05T22:11:54.483Z,1.00
2023-05-05T22:14:21.721Z,1.40
2023-05-05T22:16:48.745Z,1.20
2023-05-05T22:19:15.928Z,1.10
2023-05-05T22:21:42.994Z,1.40
2023-05-05T22:24:10.057Z,1.30
2023-05-05T22:26:39.896Z,1.20
2023-05-05T22:29:06.864Z,1.60
2023-05-05T22:31:33.904Z,1.60
2023-05-05T22:34:01.053Z,1.20
2023-05-05T22:36:28.018Z,1.30
2023-05-05T22:38:55.187Z,1.20
2023-05-05T22:41:22.243Z,1.50
2023-05-05T22:43:49.467Z,1.40
2023-05-05T22:46:16.493Z,1.70
2023-05-05T22:48:43.530Z,1.40
2023-05-05T22:51:11.340Z,1.30
2023-05-05T22:53:38.942Z,1.60
2023-05-05T22:56:06.428Z,1.40
2023-05-05T22:58:33.484Z,1.60
2023-05-05T23:01:00.567Z,1.20
2023-05-05T23:03:27.588Z,1.50
2023-05-05T23:05:54.546Z,1.40
2023-05-05T23:08:21.870Z,1.40
2023-05-05T23:10:48.820Z,1.20
2023-05-05T23:13:15.990Z,1.30
2023-05-05T23:15:43.768Z,1.70
2023-05-05T23:18:11.098Z,1.10
2023-05-05T23:20:38.076Z,1.40
2023-05-05T23:23:05.097Z,1.10
2023-05-05T23:25:32.064Z,1.10
2023-05-05T23:27:59.059Z,1.10
2023-05-05T23:30:26.117Z,1.30
2023-05-05T23:32:53.199Z,1.20
2023-05-05T23:35:20.321Z,1.40
2023-05-05T23:37:47.352Z,1.70
2023-05-05T23:40:14.349Z,1.20
2023-05-05T23:42:41.318Z,1.50
2023-05-05T23:45:09.337Z,1.50
2023-05-05T23:47:36.568Z,1.50
2023-05-05T23:50:03.787Z,1.50
2023-05-05T23:52:30.837Z,1.30
2023-05-05T23:54:57.838Z,1.40
2023-05-05T23:57:24.820Z,1.30
2023-05-05T23:59:51.859Z,1.40
